This is the latest recevied weather packets stored in our database for station/object W5MAI. If no packets are shown the sender has not sent any weather packets the latest 10 day(s).
| Time | Temp. | Humidity | Pressure | Rain* | Wind** | Luminosity | Snow |
|---|---|---|---|---|---|---|---|
| 1787857420 | 37.78° C | 40% | 1016.2 hPa | 0 mm | - | 1035 W/m² | - |
| 1787856825 | 37.22° C | 40% | 1016.3 hPa | 0 mm | - | 991 W/m² | - |
| 1787856246 | 37.22° C | 42% | 1016.5 hPa | 0 mm | - | 963 W/m² | - |
| 1787855661 | 36.67° C | 41% | 1016.6 hPa | 0 mm | - | 946 W/m² | - |
| 1787855015 | 36.67° C | 44% | 1016.9 hPa | 0 mm | - | 905 W/m² | - |
| 1787854448 | 37.22° C | 42% | 1017.1 hPa | 0 mm | - | 907 W/m² | - |
| 1787853808 | 36.67° C | 43% | 1017.2 hPa | 0 mm | - | 895 W/m² | - |
| 1787853238 | 37.22° C | 43% | 1017.3 hPa | 0 mm | - | 877 W/m² | - |
| 1787852651 | 36.67° C | 45% | 1017.5 hPa | 0 mm | - | 858 W/m² | - |
| 1787852024 | 36.11° C | 45% | 1017.6 hPa | 0 mm | - | 849 W/m² | - |
| 1787851456 | 35.56° C | 47% | 1017.7 hPa | 0 mm | - | 837 W/m² | - |
| 1787850814 | 35.56° C | 47% | 1017.9 hPa | 0 mm | - | 821 W/m² | - |
| 1787850245 | 35.56° C | 48% | 1018 hPa | 0 mm | - | 807 W/m² | - |
| 1787849606 | 35° C | 51% | 1018.1 hPa | 0 mm | - | 786 W/m² | - |
| 1787849037 | 33.89° C | 54% | 1018.1 hPa | 0 mm | - | 765 W/m² | - |
| 1787848439 | 33.89° C | 54% | 1018.2 hPa | 0 mm | - | 744 W/m² | - |
| 1787847862 | 33.89° C | 55% | 1018.3 hPa | 0 mm | - | 722 W/m² | - |
| 1787847228 | 33.33° C | 57% | 1018.3 hPa | 0 mm | - | 694 W/m² | - |
| 1787846660 | 32.78° C | 59% | 1018.4 hPa | 0 mm | - | 671 W/m² | - |
| 1787843621 | 30.56° C | 67% | 1018.4 hPa | 0 mm | - | 517 W/m² | - |
| 1787843056 | 30° C | 69% | 1018.4 hPa | 0 mm | - | 492 W/m² | - |
| 1787842414 | 29.44° C | 70% | 1018.4 hPa | 0 mm | - | 455 W/m² | - |
| 1787841844 | 29.44° C | 70% | 1018.4 hPa | 0 mm | - | 422 W/m² | - |
| 1787841261 | 28.89° C | 73% | 1018.3 hPa | 0 mm | - | 385 W/m² | - |
| 1787840628 | 28.33° C | 74% | 1018.3 hPa | 0 mm | - | 325 W/m² | - |
* Rain latest hour (hover to see other rain measurements)
** Current wind speed in m/s (hover to see current wind gust speed)